Архив погоды в Кудымкаре

Метеограмма Кудымкар
Вторник, 14 Августа
Время местн. Темп Ветер Видим Явления Облачность нижн/средн/верх Атм. давл. Влжн Точка росы ВНГО R Сост. почвы Tg s
Напр Скр Прв ур.ст ур.м изм
14:00 +20° З 3 - более 50 км - преимущественно облачно 739 756 +0.1 50% +9.2° 1 км - - - -
11:00 +19.3° З,С-З 3 - более 50 км - облачно с прояснениями 739 756 +0.3 57% +10.6° 1.5 км - - - -
08:00 +14.4° З 1 - более 50 км - облачно с прояснениями 739 755 +0.9 86% +12.1° 600 м 0 Сухая (без трещин) +14° -
05:00 +13.9° штиль 0 - более 50 км - облачно 738 755 +0.2 92% +12.6° 600 м - - - -
02:00 +15° Ю,Ю-З 1 - более 50 км - облачно с прояснениями 738 754 +0.6 91% +13.6° 2.5 км - - - -
Понедельник, 13 Августа
Время местн. Темп Ветер Видим Явления Облачность нижн/средн/верх Атм. давл. Влжн Точка росы ВНГО R Сост. почвы Tg s
Напр Скр Прв ур.ст ур.м изм
23:00 +18.2° З 2 12 более 50 км облака рассеиваются {ливневые осадки} переменная облачность 737 754 +0.8 80% +14.6° 2.5 км - - - -
20:00 +23° Ю-З 2 - более 50 км - облачно с прояснениями 737 753 -0.8 52% +12.6° 1 км 0 - - -
17:00 +25.7° З,Ю-З 4 10 более 50 км - переменная облачность 737 753 -0.8 39% +10.8° 600 м - - - -
14:00 +25.9° З,Ю-З 4 10 более 50 км - облачно с прояснениями 738 754 -0.9 40% +11.1° 600 м - - - -
11:00 +23.4° Ю-З 4 - более 50 км - переменная облачность 739 755 -0.6 55% +13.8° 2.5 км - - - -
08:00 +16.8° Ю 1 - более 50 км - преимущественно облачно 740 756 -0.3 87% +14.6° 1 км 0 Сухая (без трещин) +14° -
05:00 +15.3° Ю,Ю-З 1 - 20 км - переменная облачность 740 756 -0.5 93% +14.1° более 2.5 км - - - -
02:00 +17.1° Ю-З 1 - 20 км - ясно 740 757 -0.3 85% +14.5° более 2.5 км - - - -
Воскресенье, 12 Августа
Время местн. Темп Ветер Видим Явления Облачность нижн/средн/верх Атм. давл. Влжн Точка росы ВНГО R Сост. почвы Tg s
Напр Скр Прв ур.ст ур.м изм
23:00 +19.6° Ю-З 1 - 20 км - незначительная облачность 741 757 +0.1 72% +14.5° более 2.5 км - - - -
20:00 +24.6° З 2 - 20 км - переменная облачность 741 756 -0.4 53% +14.3° 1 км 0 - - -
17:00 +26.5° З 5 - более 50 км - переменная облачность 741 757 +0.1 49% +14.8° 1 км - - - -
14:00 +25.6° З 4 - более 50 км - облачно с прояснениями 741 757 +0.1 58% +16.7° 1 км - - - -
11:00 +22.7° З,Ю-З 2 - более 50 км - переменная облачность 741 757 -0.7 71% +17.2° 2.5 км - - - -
08:00 +15.5° Ю,Ю-З 1 - 20 км - переменная облачность 742 758 0 97% +15.1° 1 км 2 Влажная (без луж) +13° -
05:00 +13.9° С-В 1 - более 50 км ливневый дождь облачно 742 758 -0.5 97% +13.5° 1 км - - - -
02:00 +13.4° Ю-З 1 - более 50 км - облачно 742 759 -0.2 97% +12.9° 600 м - - - -
Суббота, 11 Августа
Время местн. Темп Ветер Видим Явления Облачность нижн/средн/верх Атм. давл. Влжн Точка росы ВНГО R Сост. почвы Tg s
Напр Скр Прв ур.ст ур.м изм
23:00 +14° З 1 - более 50 км - переменная облачность 742 759 -0.2 90% +12.4° 2.5 км - - - -
20:00 +19.5° З,С-З 3 - 50 км - переменная облачность 743 759 -0.5 63% +12.3° 1 км 0 - - -
17:00 +19.9° С-З 3 12 более 50 км - преимущественно облачно 743 759 +0.3 58% +11.4° 600 м - - - -
14:00 +20.6° С 5 11 более 50 км - облачно с прояснениями 743 759 0 53% +10.6° 1.5 км - - - -
11:00 +19.9° С-З 5 10 более 50 км - облачно с прояснениями 743 759 +0.5 64% +12.9° 1.5 км - - - -